sensor_id;sensor_type;location;lat;lon;timestamp;pressure;altitude;pressure_sealevel;temperature;humidity
15750;BME280;7976;52.526;13.326;2023-08-07T00:01:43;99801.75;;;15.94;94.82
15750;BME280;7976;52.526;13.326;2023-08-07T00:04:09;99791.31;;;15.93;94.84
15750;BME280;7976;52.526;13.326;2023-08-07T00:06:36;99797.81;;;15.89;95.03
15750;BME280;7976;52.526;13.326;2023-08-07T00:09:03;99801.25;;;15.89;94.81
15750;BME280;7976;52.526;13.326;2023-08-07T00:11:30;99790.69;;;15.89;95.37
15750;BME280;7976;52.526;13.326;2023-08-07T00:13:58;99788.91;;;15.90;95.37
15750;BME280;7976;52.526;13.326;2023-08-07T00:16:26;99797.56;;;15.92;95.16
15750;BME280;7976;52.526;13.326;2023-08-07T00:18:53;99797.31;;;15.95;95.47
15750;BME280;7976;52.526;13.326;2023-08-07T00:21:22;99796.81;;;15.90;95.73
15750;BME280;7976;52.526;13.326;2023-08-07T00:23:49;99805.38;;;15.93;96.01
15750;BME280;7976;52.526;13.326;2023-08-07T00:26:16;99795.88;;;15.91;95.85
15750;BME280;7976;52.526;13.326;2023-08-07T00:28:43;99804.28;;;15.96;96.13
15750;BME280;7976;52.526;13.326;2023-08-07T00:31:10;99788.91;;;15.90;96.34
15750;BME280;7976;52.526;13.326;2023-08-07T00:33:41;99789.53;;;15.93;96.74
15750;BME280;7976;52.526;13.326;2023-08-07T00:36:08;99785.31;;;15.91;97.01
15750;BME280;7976;52.526;13.326;2023-08-07T00:38:37;99784.25;;;15.93;96.56
15750;BME280;7976;52.526;13.326;2023-08-07T00:41:04;99779.44;;;15.87;96.70
15750;BME280;7976;52.526;13.326;2023-08-07T00:43:33;99783.00;;;15.86;97.24
15750;BME280;7976;52.526;13.326;2023-08-07T00:46:00;99775.44;;;15.82;96.98
15750;BME280;7976;52.526;13.326;2023-08-07T00:48:27;99781.78;;;15.79;97.26
15750;BME280;7976;52.526;13.326;2023-08-07T00:50:56;99785.88;;;15.83;97.44
15750;BME280;7976;52.526;13.326;2023-08-07T00:53:24;99775.44;;;15.82;97.37
15750;BME280;7976;52.526;13.326;2023-08-07T00:55:52;99784.31;;;15.81;97.55
15750;BME280;7976;52.526;13.326;2023-08-07T00:58:19;99779.53;;;15.86;97.42
15750;BME280;7976;52.526;13.326;2023-08-07T01:00:46;99776.88;;;15.86;97.35
15750;BME280;7976;52.526;13.326;2023-08-07T01:03:13;99776.06;;;15.85;96.72
15750;BME280;7976;52.526;13.326;2023-08-07T01:05:40;99781.13;;;15.88;96.65
15750;BME280;7976;52.526;13.326;2023-08-07T01:08:09;99769.81;;;15.86;96.73
15750;BME280;7976;52.526;13.326;2023-08-07T01:10:51;99780.16;;;15.89;96.72
15750;BME280;7976;52.526;13.326;2023-08-07T01:13:29;99776.88;;;15.86;96.67
15750;BME280;7976;52.526;13.326;2023-08-07T01:16:04;99785.53;;;15.88;96.58
15750;BME280;7976;52.526;13.326;2023-08-07T01:18:36;99782.78;;;15.89;96.40
15750;BME280;7976;52.526;13.326;2023-08-07T01:21:05;99785.53;;;15.88;96.49
15750;BME280;7976;52.526;13.326;2023-08-07T01:23:34;99778.81;;;15.84;96.59
15750;BME280;7976;52.526;13.326;2023-08-07T01:26:01;99761.28;;;15.83;96.82
15750;BME280;7976;52.526;13.326;2023-08-07T01:28:37;99760.78;;;15.78;96.63
15750;BME280;7976;52.526;13.326;2023-08-07T01:31:14;99761.41;;;15.81;96.33
15750;BME280;7976;52.526;13.326;2023-08-07T01:33:53;99747.38;;;15.81;96.82
15750;BME280;7976;52.526;13.326;2023-08-07T01:36:27;99763.59;;;15.87;96.54
15750;BME280;7976;52.526;13.326;2023-08-07T01:38:57;99751.34;;;15.86;96.14
15750;BME280;7976;52.526;13.326;2023-08-07T01:41:26;99738.50;;;15.82;96.26
15750;BME280;7976;52.526;13.326;2023-08-07T01:43:54;99743.16;;;15.78;96.47
15750;BME280;7976;52.526;13.326;2023-08-07T01:46:21;99738.25;;;15.74;96.00
15750;BME280;7976;52.526;13.326;2023-08-07T01:48:48;99744.47;;;15.73;96.19
15750;BME280;7976;52.526;13.326;2023-08-07T01:51:15;99745.31;;;15.73;96.31
15750;BME280;7976;52.526;13.326;2023-08-07T01:53:42;99745.19;;;15.75;95.49
15750;BME280;7976;52.526;13.326;2023-08-07T01:56:10;99745.31;;;15.73;95.82
15750;BME280;7976;52.526;13.326;2023-08-07T01:58:37;99741.22;;;15.69;95.41
15750;BME280;7976;52.526;13.326;2023-08-07T02:01:04;99745.88;;;15.66;95.38
15750;BME280;7976;52.526;13.326;2023-08-07T02:03:31;99741.56;;;15.65;95.53
15750;BME280;7976;52.526;13.326;2023-08-07T02:05:59;99743.47;;;15.63;95.53
15750;BME280;7976;52.526;13.326;2023-08-07T02:08:26;99758.13;;;15.67;95.50
15750;BME280;7976;52.526;13.326;2023-08-07T02:10:53;99749.69;;;15.62;95.46
15750;BME280;7976;52.526;13.326;2023-08-07T02:13:21;99755.47;;;15.67;95.30
15750;BME280;7976;52.526;13.326;2023-08-07T02:15:48;99747.41;;;15.57;95.17
15750;BME280;7976;52.526;13.326;2023-08-07T02:18:15;99754.34;;;15.58;95.65
15750;BME280;7976;52.526;13.326;2023-08-07T02:20:42;99756.16;;;15.58;95.62
15750;BME280;7976;52.526;13.326;2023-08-07T02:23:09;99758.06;;;15.56;96.04
15750;BME280;7976;52.526;13.326;2023-08-07T02:25:36;99761.53;;;15.56;96.19
15750;BME280;7976;52.526;13.326;2023-08-07T02:28:03;99757.47;;;15.52;96.01
15750;BME280;7976;52.526;13.326;2023-08-07T02:30:32;99766.69;;;15.58;96.41
15750;BME280;7976;52.526;13.326;2023-08-07T02:32:59;99763.56;;;15.53;96.41
15750;BME280;7976;52.526;13.326;2023-08-07T02:35:26;99767.56;;;15.58;96.68
15750;BME280;7976;52.526;13.326;2023-08-07T02:37:52;99765.03;;;15.57;96.85
15750;BME280;7976;52.526;13.326;2023-08-07T02:40:19;99774.50;;;15.59;97.23
15750;BME280;7976;52.526;13.326;2023-08-07T02:42:46;99769.09;;;15.61;97.21
15750;BME280;7976;52.526;13.326;2023-08-07T02:45:13;99774.50;;;15.59;97.62
15750;BME280;7976;52.526;13.326;2023-08-07T02:47:41;99784.50;;;15.67;97.38
15750;BME280;7976;52.526;13.326;2023-08-07T02:50:09;99771.53;;;15.64;97.43
15750;BME280;7976;52.526;13.326;2023-08-07T02:52:36;99769.59;;;15.66;97.52
15750;BME280;7976;52.526;13.326;2023-08-07T02:55:04;99767.72;;;15.68;98.04
15750;BME280;7976;52.526;13.326;2023-08-07T02:57:31;99783.09;;;15.74;98.29
15750;BME280;7976;52.526;13.326;2023-08-07T02:59:58;99772.75;;;15.71;98.34
15750;BME280;7976;52.526;13.326;2023-08-07T03:02:25;99773.38;;;15.74;98.58
15750;BME280;7976;52.526;13.326;2023-08-07T03:04:53;99769.91;;;15.74;98.41
15750;BME280;7976;52.526;13.326;2023-08-07T03:07:20;99772.31;;;15.77;98.55
15750;BME280;7976;52.526;13.326;2023-08-07T03:09:48;99779.88;;;15.81;98.81
15750;BME280;7976;52.526;13.326;2023-08-07T03:12:15;99777.34;;;15.80;98.84
15750;BME280;7976;52.526;13.326;2023-08-07T03:14:42;99774.94;;;15.77;98.47
15750;BME280;7976;52.526;13.326;2023-08-07T03:17:09;99775.69;;;15.79;98.86
15750;BME280;7976;52.526;13.326;2023-08-07T03:19:36;99773.38;;;15.74;98.87
15750;BME280;7976;52.526;13.326;2023-08-07T03:22:05;99781.78;;;15.79;99.26
15750;BME280;7976;52.526;13.326;2023-08-07T03:24:32;99774.22;;;15.75;99.48
15750;BME280;7976;52.526;13.326;2023-08-07T03:26:59;99776.75;;;15.76;99.77
15750;BME280;7976;52.526;13.326;2023-08-07T03:29:26;99786.25;;;15.79;99.37
15750;BME280;7976;52.526;13.326;2023-08-07T03:31:54;99784.78;;;15.75;99.52
15750;BME280;7976;52.526;13.326;2023-08-07T03:34:21;99787.19;;;15.78;99.83
15750;BME280;7976;52.526;13.326;2023-08-07T03:36:48;99794.28;;;15.77;99.68
15750;BME280;7976;52.526;13.326;2023-08-07T03:39:16;99785.38;;;15.78;100.00
15750;BME280;7976;52.526;13.326;2023-08-07T03:41:44;99786.00;;;15.82;99.82
15750;BME280;7976;52.526;13.326;2023-08-07T03:44:12;99782.50;;;15.81;100.00
15750;BME280;7976;52.526;13.326;2023-08-07T03:46:39;99784.41;;;15.79;99.74
15750;BME280;7976;52.526;13.326;2023-08-07T03:49:06;99792.94;;;15.83;99.70
15750;BME280;7976;52.526;13.326;2023-08-07T03:51:33;99794.44;;;15.87;99.92
15750;BME280;7976;52.526;13.326;2023-08-07T03:54:00;99790.94;;;15.86;100.00
15750;BME280;7976;52.526;13.326;2023-08-07T03:56:28;99793.81;;;15.83;99.93
15750;BME280;7976;52.526;13.326;2023-08-07T03:58:58;99788.53;;;15.83;100.00
15750;BME280;7976;52.526;13.326;2023-08-07T04:01:25;99786.00;;;15.82;99.86
15750;BME280;7976;52.526;13.326;2023-08-07T04:03:52;99800.44;;;15.89;99.89
15750;BME280;7976;52.526;13.326;2023-08-07T04:06:19;99790.81;;;15.88;99.83
15750;BME280;7976;52.526;13.326;2023-08-07T04:08:48;99798.63;;;15.89;99.69
15750;BME280;7976;52.526;13.326;2023-08-07T04:11:15;99798.00;;;15.86;99.63
15750;BME280;7976;52.526;13.326;2023-08-07T04:13:44;99803.06;;;15.89;100.00
15750;BME280;7976;52.526;13.326;2023-08-07T04:16:11;99786.84;;;15.82;99.94
15750;BME280;7976;52.526;13.326;2023-08-07T04:18:38;99792.72;;;15.86;99.55
15750;BME280;7976;52.526;13.326;2023-08-07T04:21:05;99786.50;;;15.87;99.40
15750;BME280;7976;52.526;13.326;2023-08-07T04:23:32;99781.59;;;15.82;99.37
15750;BME280;7976;52.526;13.326;2023-08-07T04:25:59;99796.09;;;15.88;99.52
15750;BME280;7976;52.526;13.326;2023-08-07T04:28:28;99798.84;;;15.86;99.40
15750;BME280;7976;52.526;13.326;2023-08-07T04:30:57;99794.53;;;15.85;99.11
15750;BME280;7976;52.526;13.326;2023-08-07T04:33:25;99790.19;;;15.84;99.05
15750;BME280;7976;52.526;13.326;2023-08-07T04:35:52;99792.84;;;15.84;99.11
15750;BME280;7976;52.526;13.326;2023-08-07T04:38:19;99799.22;;;15.93;99.48
15750;BME280;7976;52.526;13.326;2023-08-07T04:40:47;99796.72;;;15.91;98.99
15750;BME280;7976;52.526;13.326;2023-08-07T04:45:57;99807.16;;;15.93;98.84
15750;BME280;7976;52.526;13.326;2023-08-07T04:48:25;99804.50;;;15.93;98.73
15750;BME280;7976;52.526;13.326;2023-08-07T04:50:55;99804.41;;;15.94;99.08
15750;BME280;7976;52.526;13.326;2023-08-07T04:53:23;99815.19;;;15.91;98.73
15750;BME280;7976;52.526;13.326;2023-08-07T04:55:50;99812.53;;;15.91;98.66
15750;BME280;7976;52.526;13.326;2023-08-07T04:58:17;99812.53;;;15.91;98.38
15750;BME280;7976;52.526;13.326;2023-08-07T05:00:44;99816.03;;;15.92;98.41
15750;BME280;7976;52.526;13.326;2023-08-07T05:03:12;99811.50;;;15.94;98.33
15750;BME280;7976;52.526;13.326;2023-08-07T05:05:41;99808.00;;;15.93;98.25
15750;BME280;7976;52.526;13.326;2023-08-07T05:08:07;99814.84;;;15.96;97.63
15750;BME280;7976;52.526;13.326;2023-08-07T05:10:34;99812.19;;;15.96;97.51
15750;BME280;7976;52.526;13.326;2023-08-07T05:13:01;99819.19;;;15.97;97.13
15750;BME280;7976;52.526;13.326;2023-08-07T05:15:28;99816.41;;;15.98;97.48
15750;BME280;7976;52.526;13.326;2023-08-07T05:17:56;99829.63;;;15.98;97.25
15750;BME280;7976;52.526;13.326;2023-08-07T05:20:24;99823.50;;;15.98;96.75
15750;BME280;7976;52.526;13.326;2023-08-07T05:22:51;99825.41;;;15.96;96.90
15750;BME280;7976;52.526;13.326;2023-08-07T05:25:18;99832.50;;;15.95;97.08
15750;BME280;7976;52.526;13.326;2023-08-07T05:27:45;99828.25;;;15.93;96.50
15750;BME280;7976;52.526;13.326;2023-08-07T05:30:14;99828.38;;;15.91;96.14
15750;BME280;7976;52.526;13.326;2023-08-07T05:32:41;99831.88;;;15.92;96.41
15750;BME280;7976;52.526;13.326;2023-08-07T05:35:08;99829.13;;;15.93;96.35
15750;BME280;7976;52.526;13.326;2023-08-07T05:37:37;99831.63;;;15.95;96.12
15750;BME280;7976;52.526;13.326;2023-08-07T05:40:05;99834.03;;;15.98;95.69
15750;BME280;7976;52.526;13.326;2023-08-07T05:42:32;99838.50;;;15.97;96.08
15750;BME280;7976;52.526;13.326;2023-08-07T05:45:00;99843.78;;;15.97;95.90
15750;BME280;7976;52.526;13.326;2023-08-07T05:47:27;99846.31;;;15.99;95.63
15750;BME280;7976;52.526;13.326;2023-08-07T05:49:54;99849.66;;;16.01;95.49
15750;BME280;7976;52.526;13.326;2023-08-07T05:52:20;99848.59;;;16.03;95.30
15750;BME280;7976;52.526;13.326;2023-08-07T05:54:49;99850.28;;;16.04;95.36
15750;BME280;7976;52.526;13.326;2023-08-07T05:57:15;99850.88;;;16.08;95.17
15750;BME280;7976;52.526;13.326;2023-08-07T05:59:42;99846.22;;;16.11;94.95
15750;BME280;7976;52.526;13.326;2023-08-07T06:02:09;99847.69;;;16.15;95.05
15750;BME280;7976;52.526;13.326;2023-08-07T06:04:37;99847.34;;;16.20;94.88
15750;BME280;7976;52.526;13.326;2023-08-07T06:07:05;99842.78;;;16.22;94.93
15750;BME280;7976;52.526;13.326;2023-08-07T06:09:33;99843.66;;;16.22;94.20
15750;BME280;7976;52.526;13.326;2023-08-07T06:12:01;99851.44;;;16.24;94.04
15750;BME280;7976;52.526;13.326;2023-08-07T06:14:28;99852.16;;;16.26;94.27
15750;BME280;7976;52.526;13.326;2023-08-07T06:16:54;99857.00;;;16.32;94.11
15750;BME280;7976;52.526;13.326;2023-08-07T06:19:23;99865.28;;;16.39;93.50
15750;BME280;7976;52.526;13.326;2023-08-07T06:21:52;99869.28;;;16.44;93.48
15750;BME280;7976;52.526;13.326;2023-08-07T06:24:19;99865.47;;;16.48;93.19
15750;BME280;7976;52.526;13.326;2023-08-07T06:26:46;99879.16;;;16.53;93.30
15750;BME280;7976;52.526;13.326;2023-08-07T06:29:14;99881.25;;;16.61;93.13
15750;BME280;7976;52.526;13.326;2023-08-07T06:31:41;99883.41;;;16.67;92.64
15750;BME280;7976;52.526;13.326;2023-08-07T06:34:09;99882.97;;;16.73;92.78
15750;BME280;7976;52.526;13.326;2023-08-07T06:36:36;99887.88;;;16.77;92.17
15750;BME280;7976;52.526;13.326;2023-08-07T06:39:03;99891.25;;;16.79;92.21
15750;BME280;7976;52.526;13.326;2023-08-07T06:41:29;99885.75;;;16.82;91.52
15750;BME280;7976;52.526;13.326;2023-08-07T06:43:57;99889.72;;;16.88;91.29
15750;BME280;7976;52.526;13.326;2023-08-07T06:46:25;99898.97;;;16.93;91.30
15750;BME280;7976;52.526;13.326;2023-08-07T06:48:53;99893.44;;;16.96;90.32
15750;BME280;7976;52.526;13.326;2023-08-07T06:51:20;99887.06;;;16.99;89.90
15750;BME280;7976;52.526;13.326;2023-08-07T06:53:47;99886.00;;;17.01;89.53
15750;BME280;7976;52.526;13.326;2023-08-07T06:56:14;99887.44;;;17.05;88.83
15750;BME280;7976;52.526;13.326;2023-08-07T06:58:40;99889.84;;;17.08;88.76
15750;BME280;7976;52.526;13.326;2023-08-07T07:01:07;99890.44;;;17.12;88.11
15750;BME280;7976;52.526;13.326;2023-08-07T07:03:35;99895.28;;;17.18;87.56
15750;BME280;7976;52.526;13.326;2023-08-07T07:06:02;99905.50;;;17.22;87.26
15750;BME280;7976;52.526;13.326;2023-08-07T07:08:29;99899.72;;;17.28;87.09
15750;BME280;7976;52.526;13.326;2023-08-07T07:10:56;99901.16;;;17.32;86.32
15750;BME280;7976;52.526;13.326;2023-08-07T07:13:24;99898.03;;;17.38;86.03
15750;BME280;7976;52.526;13.326;2023-08-07T07:15:53;99901.66;;;17.48;85.59
15750;BME280;7976;52.526;13.326;2023-08-07T07:18:20;99902.88;;;17.56;85.01
15750;BME280;7976;52.526;13.326;2023-08-07T07:20:56;99908.38;;;17.64;84.71
15750;BME280;7976;52.526;13.326;2023-08-07T07:23:22;99911.50;;;17.69;84.21
15750;BME280;7976;52.526;13.326;2023-08-07T07:25:49;99913.81;;;17.73;84.44
15750;BME280;7976;52.526;13.326;2023-08-07T07:28:16;99915.34;;;17.76;84.19
15750;BME280;7976;52.526;13.326;2023-08-07T07:30:43;99928.34;;;17.79;83.64
15750;BME280;7976;52.526;13.326;2023-08-07T07:33:10;99926.53;;;17.79;83.50
15750;BME280;7976;52.526;13.326;2023-08-07T07:35:37;99916.81;;;17.80;83.35
15750;BME280;7976;52.526;13.326;2023-08-07T07:38:06;99922.91;;;17.80;82.93
15750;BME280;7976;52.526;13.326;2023-08-07T07:40:34;99923.03;;;17.79;82.68
15750;BME280;7976;52.526;13.326;2023-08-07T07:43:01;99917.03;;;17.77;82.15
15750;BME280;7976;52.526;13.326;2023-08-07T07:45:28;99923.03;;;17.79;82.07
15750;BME280;7976;52.526;13.326;2023-08-07T07:47:55;99925.34;;;17.83;81.97
15750;BME280;7976;52.526;13.326;2023-08-07T07:50:22;99930.25;;;17.88;82.03
15750;BME280;7976;52.526;13.326;2023-08-07T07:52:49;99930.72;;;17.93;81.90
15750;BME280;7976;52.526;13.326;2023-08-07T07:55:17;99930.47;;;17.96;81.89
15750;BME280;7976;52.526;13.326;2023-08-07T07:57:44;99931.22;;;17.98;81.85
15750;BME280;7976;52.526;13.326;2023-08-07T08:00:12;99940.69;;;18.00;81.61
15750;BME280;7976;52.526;13.326;2023-08-07T08:02:40;99937.94;;;18.02;80.97
15750;BME280;7976;52.526;13.326;2023-08-07T08:05:09;99943.00;;;18.05;80.88
15750;BME280;7976;52.526;13.326;2023-08-07T08:07:37;99943.00;;;18.05;80.27
15750;BME280;7976;52.526;13.326;2023-08-07T08:10:06;99942.28;;;18.03;80.67
15750;BME280;7976;52.526;13.326;2023-08-07T08:12:36;99948.03;;;18.08;80.72
15750;BME280;7976;52.526;13.326;2023-08-07T08:15:03;99938.41;;;18.07;80.74
15750;BME280;7976;52.526;13.326;2023-08-07T08:17:30;99945.63;;;18.05;80.92
15750;BME280;7976;52.526;13.326;2023-08-07T08:19:57;99945.50;;;18.06;81.03
15750;BME280;7976;52.526;13.326;2023-08-07T08:22:24;99955.00;;;18.09;80.75
15750;BME280;7976;52.526;13.326;2023-08-07T08:24:51;99958.84;;;18.16;81.04
15750;BME280;7976;52.526;13.326;2023-08-07T08:27:18;99957.66;;;18.20;81.04
15750;BME280;7976;52.526;13.326;2023-08-07T08:29:46;99958.97;;;18.14;80.70
15750;BME280;7976;52.526;13.326;2023-08-07T08:32:13;99963.69;;;18.11;81.17
15750;BME280;7976;52.526;13.326;2023-08-07T08:34:40;99962.94;;;18.09;81.29
15750;BME280;7976;52.526;13.326;2023-08-07T08:37:26;99971.88;;;18.08;81.82
15750;BME280;7976;52.526;13.326;2023-08-07T08:39:54;99969.69;;;18.13;81.82
15750;BME280;7976;52.526;13.326;2023-08-07T08:42:21;99967.91;;;18.13;82.02
15750;BME280;7976;52.526;13.326;2023-08-07T08:44:53;99978.38;;;18.15;81.54
15750;BME280;7976;52.526;13.326;2023-08-07T08:47:21;99969.91;;;18.21;81.34
15750;BME280;7976;52.526;13.326;2023-08-07T08:49:55;99966.53;;;18.30;81.34
15750;BME280;7976;52.526;13.326;2023-08-07T08:52:27;99966.50;;;18.41;81.04
15750;BME280;7976;52.526;13.326;2023-08-07T08:54:56;99971.06;;;18.50;80.47
15750;BME280;7976;52.526;13.326;2023-08-07T08:57:25;99961.66;;;18.57;80.11
15750;BME280;7976;52.526;13.326;2023-08-07T08:59:53;99961.53;;;18.58;79.22
15750;BME280;7976;52.526;13.326;2023-08-07T09:02:21;99956.09;;;18.60;79.31
15750;BME280;7976;52.526;13.326;2023-08-07T09:04:48;99956.56;;;18.65;79.71
15750;BME280;7976;52.526;13.326;2023-08-07T09:07:16;99957.00;;;18.70;79.39
15750;BME280;7976;52.526;13.326;2023-08-07T09:09:44;99954.69;;;18.77;78.94
15750;BME280;7976;52.526;13.326;2023-08-07T09:12:20;99958.38;;;18.85;78.16
15750;BME280;7976;52.526;13.326;2023-08-07T09:14:54;99968.78;;;18.77;77.80
15750;BME280;7976;52.526;13.326;2023-08-07T09:17:24;99971.53;;;18.55;77.87
15750;BME280;7976;52.526;13.326;2023-08-07T09:19:53;99975.53;;;18.38;79.39
15750;BME280;7976;52.526;13.326;2023-08-07T09:22:20;99970.00;;;18.30;80.09
15750;BME280;7976;52.526;13.326;2023-08-07T09:24:47;99978.53;;;18.34;80.53
15750;BME280;7976;52.526;13.326;2023-08-07T09:27:16;99984.22;;;18.40;81.37
15750;BME280;7976;52.526;13.326;2023-08-07T09:29:44;99975.66;;;18.48;81.02
15750;BME280;7976;52.526;13.326;2023-08-07T09:32:14;99982.28;;;18.53;80.66
15750;BME280;7976;52.526;13.326;2023-08-07T09:34:41;99975.38;;;18.62;80.89
15750;BME280;7976;52.526;13.326;2023-08-07T09:37:08;99973.41;;;18.64;80.25
15750;BME280;7976;52.526;13.326;2023-08-07T09:39:41;99983.88;;;18.65;80.29
15750;BME280;7976;52.526;13.326;2023-08-07T09:45:40;99981.50;;;18.62;80.26
15750;BME280;7976;52.526;13.326;2023-08-07T09:48:46;99978.72;;;18.64;80.13
15750;BME280;7976;52.526;13.326;2023-08-07T09:51:17;99992.69;;;18.66;79.96
15750;BME280;7976;52.526;13.326;2023-08-07T09:54:07;99988.38;;;18.65;79.13
15750;BME280;7976;52.526;13.326;2023-08-07T09:57:03;99995.84;;;18.60;78.88
15750;BME280;7976;52.526;13.326;2023-08-07T09:59:37;99998.03;;;18.55;78.92
15750;BME280;7976;52.526;13.326;2023-08-07T10:02:06;99991.75;;;18.56;78.25
15750;BME280;7976;52.526;13.326;2023-08-07T10:04:55;99990.03;;;18.66;78.24
15750;BME280;7976;52.526;13.326;2023-08-07T10:08:06;100006.16;;;18.74;78.08
15750;BME280;7976;52.526;13.326;2023-08-07T10:10:40;99996.97;;;18.78;78.02
15750;BME280;7976;52.526;13.326;2023-08-07T10:13:20;99989.75;;;18.80;76.71
15750;BME280;7976;52.526;13.326;2023-08-07T10:15:56;99992.13;;;18.83;76.61
15750;BME280;7976;52.526;13.326;2023-08-07T10:18:44;99980.31;;;18.87;76.54
15750;BME280;7976;52.526;13.326;2023-08-07T10:21:13;99983.28;;;18.94;75.97
15750;BME280;7976;52.526;13.326;2023-08-07T10:23:41;99983.97;;;18.96;75.42
15750;BME280;7976;52.526;13.326;2023-08-07T10:26:12;99994.22;;;19.00;75.05
15750;BME280;7976;52.526;13.326;2023-08-07T10:28:41;99991.75;;;19.08;74.94
15750;BME280;7976;52.526;13.326;2023-08-07T10:31:10;100000.03;;;19.15;74.29
15750;BME280;7976;52.526;13.326;2023-08-07T10:33:40;99988.09;;;19.20;73.77
15750;BME280;7976;52.526;13.326;2023-08-07T10:36:09;99983.34;;;19.24;72.81
15750;BME280;7976;52.526;13.326;2023-08-07T10:38:38;99980.56;;;19.25;72.39
15750;BME280;7976;52.526;13.326;2023-08-07T10:41:07;99986.34;;;19.30;72.58
15750;BME280;7976;52.526;13.326;2023-08-07T10:43:39;99986.69;;;19.37;72.82
15750;BME280;7976;52.526;13.326;2023-08-07T10:46:09;99983.16;;;19.36;72.06
15750;BME280;7976;52.526;13.326;2023-08-07T10:48:41;99985.81;;;19.36;72.11
15750;BME280;7976;52.526;13.326;2023-08-07T10:51:12;99989.59;;;19.34;71.62
15750;BME280;7976;52.526;13.326;2023-08-07T10:53:43;99983.22;;;19.25;72.25
15750;BME280;7976;52.526;13.326;2023-08-07T10:56:17;99988.81;;;19.22;72.25
15750;BME280;7976;52.526;13.326;2023-08-07T10:58:50;99992.53;;;19.20;71.77
15750;BME280;7976;52.526;13.326;2023-08-07T11:01:21;99990.72;;;19.20;72.18
15750;BME280;7976;52.526;13.326;2023-08-07T11:03:53;100005.94;;;19.18;72.00
15750;BME280;7976;52.526;13.326;2023-08-07T11:06:26;100028.78;;;19.10;72.20
15750;BME280;7976;52.526;13.326;2023-08-07T11:08:55;100035.78;;;18.79;73.71
15750;BME280;7976;52.526;13.326;2023-08-07T11:11:22;100034.19;;;18.34;78.09
15750;BME280;7976;52.526;13.326;2023-08-07T11:13:49;100033.75;;;17.96;81.35
15750;BME280;7976;52.526;13.326;2023-08-07T11:16:17;100026.19;;;17.69;83.86
15750;BME280;7976;52.526;13.326;2023-08-07T11:18:48;100021.94;;;17.56;84.94
15750;BME280;7976;52.526;13.326;2023-08-07T11:21:15;100018.56;;;17.53;86.87
15750;BME280;7976;52.526;13.326;2023-08-07T11:23:42;100020.41;;;17.53;87.51
15750;BME280;7976;52.526;13.326;2023-08-07T11:26:11;100012.78;;;17.48;88.53
15750;BME280;7976;52.526;13.326;2023-08-07T11:28:38;100020.84;;;17.47;89.10
15750;BME280;7976;52.526;13.326;2023-08-07T11:31:06;100008.97;;;17.52;89.51
15750;BME280;7976;52.526;13.326;2023-08-07T11:33:35;100018.13;;;17.60;89.78
15750;BME280;7976;52.526;13.326;2023-08-07T11:36:03;100034.94;;;17.59;89.75
15750;BME280;7976;52.526;13.326;2023-08-07T11:38:32;100034.81;;;17.49;89.19
15750;BME280;7976;52.526;13.326;2023-08-07T11:41:00;100035.25;;;17.43;89.71
15750;BME280;7976;52.526;13.326;2023-08-07T11:43:30;100024.34;;;17.47;89.90
15750;BME280;7976;52.526;13.326;2023-08-07T11:45:59;100027.13;;;17.57;89.52
15750;BME280;7976;52.526;13.326;2023-08-07T11:48:29;100025.56;;;17.66;89.58
15750;BME280;7976;52.526;13.326;2023-08-07T11:50:58;100012.31;;;17.77;89.50
15750;BME280;7976;52.526;13.326;2023-08-07T11:53:28;100013.06;;;17.90;89.82
15750;BME280;7976;52.526;13.326;2023-08-07T11:55:58;100010.88;;;18.06;89.04
15750;BME280;7976;52.526;13.326;2023-08-07T11:58:27;100014.09;;;18.20;88.78
15750;BME280;7976;52.526;13.326;2023-08-07T12:00:55;100009.41;;;18.35;88.25
15750;BME280;7976;52.526;13.326;2023-08-07T12:03:27;100002.28;;;18.46;87.76
15750;BME280;7976;52.526;13.326;2023-08-07T12:05:56;99998.88;;;18.55;86.98
15750;BME280;7976;52.526;13.326;2023-08-07T12:08:24;100009.09;;;18.60;86.36
15750;BME280;7976;52.526;13.326;2023-08-07T12:10:53;100005.34;;;18.62;85.91
15750;BME280;7976;52.526;13.326;2023-08-07T12:13:24;100005.22;;;18.64;85.43
15750;BME280;7976;52.526;13.326;2023-08-07T12:15:56;100008.97;;;18.61;85.44
15750;BME280;7976;52.526;13.326;2023-08-07T12:18:26;100002.09;;;18.59;84.96
15750;BME280;7976;52.526;13.326;2023-08-07T12:20:57;100008.84;;;18.63;84.54
15750;BME280;7976;52.526;13.326;2023-08-07T12:23:24;100007.97;;;18.73;84.47
15750;BME280;7976;52.526;13.326;2023-08-07T12:25:51;100002.75;;;18.83;83.96
15750;BME280;7976;52.526;13.326;2023-08-07T12:28:19;100012.13;;;18.87;83.96
15750;BME280;7976;52.526;13.326;2023-08-07T12:30:47;100009.09;;;18.92;82.88
15750;BME280;7976;52.526;13.326;2023-08-07T12:33:15;100007.97;;;18.94;82.55
15750;BME280;7976;52.526;13.326;2023-08-07T12:35:42;100004.66;;;18.92;82.79
15750;BME280;7976;52.526;13.326;2023-08-07T12:38:10;100028.06;;;18.87;82.01
15750;BME280;7976;52.526;13.326;2023-08-07T12:40:40;100019.03;;;18.79;81.42
15750;BME280;7976;52.526;13.326;2023-08-07T12:43:07;100022.06;;;18.74;80.73
15750;BME280;7976;52.526;13.326;2023-08-07T12:45:34;100029.31;;;18.72;79.58
15750;BME280;7976;52.526;13.326;2023-08-07T12:48:01;100026.75;;;18.70;78.91
15750;BME280;7976;52.526;13.326;2023-08-07T12:50:30;100031.72;;;18.75;78.02
15750;BME280;7976;52.526;13.326;2023-08-07T12:52:57;100038.31;;;18.81;78.05
15750;BME280;7976;52.526;13.326;2023-08-07T12:55:24;100040.00;;;18.82;77.86
15750;BME280;7976;52.526;13.326;2023-08-07T12:57:52;100045.44;;;18.80;77.61
15750;BME280;7976;52.526;13.326;2023-08-07T13:00:20;100041.81;;;18.81;77.16
15750;BME280;7976;52.526;13.326;2023-08-07T13:02:50;100042.84;;;18.90;76.17
15750;BME280;7976;52.526;13.326;2023-08-07T13:05:18;100038.09;;;19.04;74.76
15750;BME280;7976;52.526;13.326;2023-08-07T13:07:47;100039.44;;;19.19;73.61
15750;BME280;7976;52.526;13.326;2023-08-07T13:10:16;100036.78;;;19.30;72.53
15750;BME280;7976;52.526;13.326;2023-08-07T13:12:44;100031.41;;;19.41;72.23